Time;durP1;ratioP1;P1;durP2;ratioP2;P2;SDS_P1;SDS_P2;PMS_P1;PMS_P2;Temp;Humidity;BMP_temperature;BMP_pressure;BME280_temperature;BME280_humidity;BME280_pressure;Samples;Min_cycle;Max_cycle;Signal;HPM_P1;HPM_P2
2022/06/03 00:00:21;;;;;;;22.38;9.73;;;26.50;99.90;;;;;;5056110;28;20017;-61
2022/06/03 00:03:12;;;;;;;20.45;10.73;;;26.50;99.90;;;;;;5085170;28;20024;-62
2022/06/03 00:05:49;;;;;;;17.83;11.55;;;26.50;99.90;;;;;;5084193;28;20517;-62
2022/06/03 00:08:33;;;;;;;26.45;12.15;;;26.60;99.90;;;;;;5091899;28;20028;-62
2022/06/03 00:11:36;;;;;;;21.15;10.32;;;26.60;99.90;;;;;;5091498;28;20043;-62
2022/06/03 00:14:29;;;;;;;30.50;13.80;;;26.70;99.90;;;;;;5056295;28;20029;-62
2022/06/03 00:17:12;;;;;;;28.02;16.42;;;26.70;99.90;;;;;;5077454;28;20389;-62
2022/06/03 00:20:03;;;;;;;30.73;19.63;;;26.80;99.90;;;;;;5083891;28;20028;-62
2022/06/03 00:22:57;;;;;;;33.47;15.45;;;26.70;99.90;;;;;;5087135;28;20074;-62
2022/06/03 00:25:29;;;;;;;23.10;13.18;;;26.70;99.90;;;;;;5085485;28;20021;-62
2022/06/03 00:28:24;;;;;;;22.80;13.10;;;26.70;99.90;;;;;;5083340;28;20481;-61
2022/06/03 00:31:21;;;;;;;19.77;13.85;;;26.80;99.90;;;;;;5074883;28;20032;-61
2022/06/03 00:34:19;;;;;;;29.95;15.38;;;26.90;99.90;;;;;;5064783;28;20090;-62
2022/06/03 00:36:56;;;;;;;26.40;17.17;;;26.90;99.90;;;;;;5074627;28;20386;-62
2022/06/03 00:39:36;;;;;;;36.70;17.98;;;26.90;99.90;;;;;;5085134;28;20024;-62
2022/06/03 00:42:31;;;;;;;29.85;18.70;;;26.90;99.90;;;;;;5084420;28;20028;-61
2022/06/03 00:45:16;;;;;;;36.22;20.70;;;26.90;99.90;;;;;;5078438;28;20061;-62
2022/06/03 00:47:43;;;;;;;36.33;19.30;;;26.90;99.90;;;;;;5087434;28;20046;-61
2022/06/03 00:50:44;;;;;;;34.45;19.83;;;26.90;99.90;;;;;;5068772;28;20140;-62
2022/06/03 00:53:22;;;;;;;31.73;18.48;;;26.90;99.90;;;;;;5078670;28;20078;-61
2022/06/03 00:56:13;;;;;;;29.65;18.23;;;26.90;99.90;;;;;;5074825;28;20108;-62
2022/06/03 00:59:01;;;;;;;28.08;15.02;;;27.00;99.90;;;;;;5065676;28;20036;-62
2022/06/03 01:01:39;;;;;;;27.73;14.52;;;27.00;99.90;;;;;;5058478;28;20021;-63
2022/06/03 01:04:27;;;;;;;25.63;13.55;;;26.90;99.90;;;;;;5088738;28;20020;-62
2022/06/03 01:07:22;;;;;;;26.27;13.43;;;27.00;99.90;;;;;;5075110;28;20090;-62
2022/06/03 01:10:10;;;;;;;23.40;13.35;;;27.10;99.90;;;;;;5075054;28;20048;-62
2022/06/03 01:13:10;;;;;;;24.30;14.63;;;27.10;99.90;;;;;;5076411;28;20024;-62
2022/06/03 01:15:42;;;;;;;22.00;13.23;;;27.10;99.90;;;;;;5021500;28;20040;-70
2022/06/03 01:18:20;;;;;;;24.60;13.45;;;27.20;99.90;;;;;;5085079;28;20489;-70
2022/06/03 01:21:09;;;;;;;20.08;12.63;;;27.20;99.90;;;;;;5084386;28;20024;-69
2022/06/03 01:23:57;;;;;;;28.10;15.73;;;27.30;99.90;;;;;;5074951;28;20025;-62
2022/06/03 01:26:42;;;;;;;29.20;14.73;;;27.30;99.90;;;;;;5055649;28;20389;-62
2022/06/03 01:29:40;;;;;;;32.28;14.18;;;27.30;99.90;;;;;;5054759;28;20043;-63
2022/06/03 01:32:44;;;;;;;22.58;14.98;;;27.40;99.90;;;;;;5058720;28;20484;-63
2022/06/03 01:35:44;;;;;;;24.95;15.70;;;27.40;99.90;;;;;;5059657;28;20424;-62
2022/06/03 01:38:40;;;;;;;29.20;16.65;;;27.50;99.90;;;;;;5054612;28;20043;-61
2022/06/03 01:41:41;;;;;;;35.17;18.08;;;27.50;99.90;;;;;;5054718;28;20017;-61
2022/06/03 01:44:29;;;;;;;33.97;22.77;;;27.50;99.90;;;;;;5054058;28;20074;-62
2022/06/03 01:47:32;;;;;;;36.60;21.90;;;27.40;99.90;;;;;;5053232;28;20424;-61
2022/06/03 01:50:23;;;;;;;36.22;20.05;;;27.50;99.90;;;;;;5056744;28;20052;-61
2022/06/03 01:53:11;;;;;;;35.55;20.80;;;27.60;99.90;;;;;;5054282;28;20036;-64
2022/06/03 01:56:14;;;;;;;34.28;19.85;;;27.60;99.90;;;;;;5054539;28;20021;-62
2022/06/03 01:58:40;;;;;;;30.48;20.38;;;27.50;99.90;;;;;;5055959;28;20448;-62
2022/06/03 02:01:22;;;;;;;26.95;19.70;;;27.60;99.90;;;;;;5058783;28;20018;-64
2022/06/03 02:03:58;;;;;;;36.13;19.88;;;27.60;99.90;;;;;;5074431;28;20027;-62
2022/06/03 02:06:55;;;;;;;31.90;19.85;;;27.60;99.90;;;;;;5074240;28;20048;-62
2022/06/03 02:09:46;;;;;;;33.78;19.52;;;27.50;99.90;;;;;;5065070;28;20539;-63
2022/06/03 02:12:46;;;;;;;28.15;18.83;;;27.60;99.90;;;;;;5053478;28;20049;-62
2022/06/03 02:15:35;;;;;;;34.78;22.25;;;27.70;99.90;;;;;;5054212;28;20032;-61
2022/06/03 02:18:16;;;;;;;30.48;20.63;;;27.70;99.90;;;;;;5055605;28;20027;-62
2022/06/03 02:21:20;;;;;;;25.30;18.73;;;27.70;99.90;;;;;;5064904;28;20024;-61
2022/06/03 02:24:08;;;;;;;36.17;18.92;;;27.80;99.90;;;;;;5055496;28;20021;-61
2022/06/03 02:26:37;;;;;;;25.08;17.25;;;27.80;99.90;;;;;;5054379;28;20035;-62
2022/06/03 02:32:26;;;;;;;32.20;16.55;;;27.90;99.90;;;;;;5053892;28;20119;-61
2022/06/03 02:35:17;;;;;;;31.10;17.27;;;28.00;99.90;;;;;;5054079;28;20055;-61
2022/06/03 02:37:53;;;;;;;23.02;13.50;;;28.10;99.90;;;;;;5068219;28;20028;-63
2022/06/03 02:40:28;;;;;;;37.67;16.75;;;28.10;99.90;;;;;;5067148;28;20033;-63
2022/06/03 02:43:04;;;;;;;33.88;18.23;;;28.10;99.90;;;;;;5052966;28;20033;-62
2022/06/03 02:45:48;;;;;;;32.30;18.50;;;28.20;99.90;;;;;;5067964;28;20032;-64
2022/06/03 02:48:39;;;;;;;32.95;16.70;;;28.20;99.90;;;;;;5078263;28;20035;-61
2022/06/03 02:51:20;;;;;;;31.27;19.20;;;28.30;99.90;;;;;;5082041;28;20104;-62
2022/06/03 02:53:59;;;;;;;23.75;15.50;;;28.40;99.90;;;;;;5078128;28;20024;-63
2022/06/03 02:56:37;;;;;;;27.63;15.70;;;28.50;99.90;;;;;;5068345;28;20020;-64
2022/06/03 02:59:24;;;;;;;29.23;18.08;;;28.60;99.90;;;;;;5073494;28;20079;-62
2022/06/03 03:02:09;;;;;;;28.50;19.58;;;28.70;99.90;;;;;;5070274;28;20143;-63
2022/06/03 03:05:03;;;;;;;22.85;19.15;;;28.90;99.90;;;;;;5059605;28;20032;-63
2022/06/03 03:07:42;;;;;;;30.52;18.42;;;29.00;99.90;;;;;;5059601;28;20024;-62
2022/06/03 03:10:37;;;;;;;27.58;17.05;;;29.00;99.90;;;;;;5064266;28;20033;-62
2022/06/03 03:13:48;;;;;;;21.80;15.70;;;29.10;99.90;;;;;;5060610;28;20426;-63
2022/06/03 03:16:39;;;;;;;25.10;15.80;;;29.20;99.90;;;;;;5076404;28;20063;-63
2022/06/03 03:19:28;;;;;;;22.15;13.52;;;29.20;99.90;;;;;;5082258;28;20017;-65
2022/06/03 03:22:12;;;;;;;20.73;11.80;;;29.40;99.90;;;;;;5078176;28;20330;-66
2022/06/03 03:24:59;;;;;;;18.52;12.98;;;29.50;99.90;;;;;;5079450;28;20039;-65
2022/06/03 03:27:31;;;;;;;16.35;9.07;;;29.60;99.90;;;;;;5084140;28;20388;-64
2022/06/03 03:30:36;;;;;;;19.35;9.50;;;29.60;99.90;;;;;;5069710;28;20483;-63
2022/06/03 03:33:30;;;;;;;16.25;8.85;;;29.60;99.90;;;;;;5012187;28;20407;-64
2022/06/03 03:36:29;;;;;;;21.13;9.25;;;29.60;99.90;;;;;;5012608;28;20479;-64
2022/06/03 03:39:07;;;;;;;16.10;10.43;;;29.70;99.90;;;;;;5066626;28;20068;-65
2022/06/03 03:41:43;;;;;;;22.40;10.00;;;29.70;99.90;;;;;;5077585;28;20099;-65
2022/06/03 03:44:32;;;;;;;22.17;8.15;;;29.70;99.90;;;;;;5057713;28;20017;-64
2022/06/03 03:47:35;;;;;;;16.17;8.32;;;29.70;99.90;;;;;;5078306;28;20028;-62
2022/06/03 03:50:42;;;;;;;16.63;7.78;;;29.70;99.90;;;;;;5077632;28;20024;-63
2022/06/03 03:53:15;;;;;;;20.35;8.25;;;29.80;99.90;;;;;;5064014;28;20067;-64
2022/06/03 03:55:44;;;;;;;11.55;6.75;;;29.90;99.90;;;;;;5078206;28;20524;-63
2022/06/03 03:58:36;;;;;;;15.45;7.75;;;29.90;99.90;;;;;;5051961;28;20025;-64
2022/06/03 04:01:27;;;;;;;14.25;7.70;;;29.90;99.90;;;;;;5063981;28;20025;-68
2022/06/03 04:04:06;;;;;;;19.98;9.50;;;29.90;99.90;;;;;;5072340;28;20020;-62
2022/06/03 04:07:03;;;;;;;18.15;8.73;;;29.90;99.90;;;;;;5073868;28;20033;-61
2022/06/03 04:09:56;;;;;;;15.15;8.60;;;29.90;99.90;;;;;;5072895;28;20045;-62
2022/06/03 04:12:35;;;;;;;22.60;8.93;;;30.00;99.90;;;;;;5077967;28;20031;-62
2022/06/03 04:15:07;;;;;;;17.20;7.35;;;30.10;99.90;;;;;;5075333;28;20442;-62
2022/06/03 04:17:50;;;;;;;15.60;8.20;;;30.10;99.90;;;;;;5078402;28;20067;-63
2022/06/03 04:20:57;;;;;;;15.85;10.80;;;30.20;99.90;;;;;;5085750;28;20469;-61
2022/06/03 04:23:45;;;;;;;20.85;8.57;;;30.20;99.90;;;;;;5083547;28;20039;-61
2022/06/03 04:26:46;;;;;;;14.02;7.85;;;30.30;99.90;;;;;;5080030;28;20083;-62
2022/06/03 04:29:34;;;;;;;10.07;6.32;;;30.30;99.90;;;;;;5078050;28;20029;-62
2022/06/03 04:32:12;;;;;;;13.68;7.07;;;30.30;99.90;;;;;;5081827;28;20029;-62
2022/06/03 04:35:06;;;;;;;12.60;6.78;;;30.40;99.90;;;;;;5079100;28;20036;-61
2022/06/03 04:38:26;;;;;;;14.07;7.97;;;30.50;99.90;;;;;;5082338;28;20024;-62
2022/06/03 04:41:34;;;;;;;16.20;8.25;;;30.60;99.90;;;;;;5081904;28;20025;-62
2022/06/03 04:44:38;;;;;;;11.90;6.75;;;30.60;99.90;;;;;;5083023;28;20020;-62
2022/06/03 04:47:38;;;;;;;20.27;6.68;;;30.60;99.90;;;;;;5096643;23;20056;-62
2022/06/03 04:50:41;;;;;;;14.02;6.47;;;30.70;99.90;;;;;;5083408;28;20024;-62
2022/06/03 04:53:26;;;;;;;10.68;5.57;;;30.70;99.90;;;;;;5082280;28;20385;-62
2022/06/03 04:55:58;;;;;;;12.63;6.00;;;30.80;99.90;;;;;;5083828;28;20017;-62
2022/06/03 04:59:02;;;;;;;12.30;5.90;;;30.80;99.90;;;;;;5084132;28;20073;-62
2022/06/03 05:02:06;;;;;;;17.05;6.18;;;30.80;99.90;;;;;;5086002;28;20056;-62
2022/06/03 05:04:51;;;;;;;12.50;5.45;;;30.90;99.90;;;;;;5086916;28;20055;-63
2022/06/03 05:07:48;;;;;;;10.90;5.78;;;30.90;99.90;;;;;;5084994;28;20021;-63
2022/06/03 05:10:24;;;;;;;9.38;6.10;;;30.90;99.90;;;;;;5086096;28;20451;-62
2022/06/03 05:13:09;;;;;;;13.82;6.20;;;31.00;99.90;;;;;;5070301;28;20021;-61
2022/06/03 05:15:45;;;;;;;11.45;5.90;;;31.00;99.90;;;;;;5065072;28;20103;-61
2022/06/03 05:18:56;;;;;;;11.27;5.55;;;31.10;99.90;;;;;;5065928;28;20021;-64
2022/06/03 05:21:52;;;;;;;11.93;5.60;;;31.20;99.90;;;;;;5064567;28;20039;-62
2022/06/03 05:24:41;;;;;;;15.68;6.57;;;31.20;99.90;;;;;;5064515;28;20500;-63
2022/06/03 05:27:32;;;;;;;12.68;5.78;;;31.30;99.90;;;;;;5070846;28;20024;-62
2022/06/03 05:30:21;;;;;;;9.45;5.68;;;31.40;99.90;;;;;;5061806;28;20024;-63
2022/06/03 05:33:06;;;;;;;8.40;5.30;;;31.40;99.90;;;;;;5057860;28;20035;-63
2022/06/03 05:35:41;;;;;;;11.02;5.30;;;31.30;99.90;;;;;;5062256;28;20101;-63
2022/06/03 05:38:40;;;;;;;8.88;4.50;;;31.30;99.90;;;;;;5064842;28;20428;-62
2022/06/03 05:44:27;;;;;;;;;;;31.40;99.90;;;;;;5067883;28;20066;-66
2022/06/03 05:47:15;;;;;;;6.65;4.38;;;31.50;99.90;;;;;;5068474;28;19948;-65
2022/06/03 05:50:05;;;;;;;10.27;5.15;;;31.60;99.90;;;;;;5066238;28;20059;-65
2022/06/03 05:53:01;;;;;;;9.18;4.72;;;31.70;99.60;;;;;;5067174;28;20516;-66
2022/06/03 05:55:45;;;;;;;12.05;4.88;;;31.60;99.90;;;;;;5062734;28;20115;-64
2022/06/03 05:58:22;;;;;;;10.25;5.15;;;31.50;99.50;;;;;;5067560;28;20496;-65
2022/06/03 06:01:15;;;;;;;15.80;4.45;;;31.50;99.90;;;;;;5066409;28;20115;-66
2022/06/03 06:04:14;;;;;;;9.25;4.80;;;31.40;99.50;;;;;;5054938;28;20044;-65
2022/06/03 06:07:17;;;;;;;14.05;4.72;;;31.50;99.20;;;;;;5072263;28;20024;-64
2022/06/03 06:09:50;;;;;;;8.27;3.90;;;31.60;99.80;;;;;;5069698;28;20036;-65
2022/06/03 06:12:35;;;;;;;6.90;3.90;;;31.80;98.80;;;;;;5069428;28;20025;-65
2022/06/03 06:15:23;;;;;;;11.13;4.20;;;31.90;98.10;;;;;;5071595;28;20077;-68
2022/06/03 06:18:08;;;;;;;9.38;4.60;;;32.00;98.20;;;;;;5067013;28;20060;-62
2022/06/03 06:20:41;;;;;;;9.90;3.78;;;32.10;98.40;;;;;;5069361;28;20458;-62
2022/06/03 06:23:45;;;;;;;7.97;3.38;;;32.10;97.60;;;;;;5063807;28;20028;-62
2022/06/03 06:26:33;;;;;;;9.55;5.15;;;32.00;97.40;;;;;;5064675;28;20104;-63
2022/06/03 06:29:32;;;;;;;11.82;4.90;;;32.20;98.10;;;;;;5063409;28;20457;-63
2022/06/03 06:32:35;;;;;;;8.07;3.90;;;32.30;97.30;;;;;;5066285;28;20051;-62
2022/06/03 06:35:07;;;;;;;9.65;5.18;;;32.40;96.80;;;;;;5064761;28;20100;-62
2022/06/03 06:37:55;;;;;;;10.35;4.47;;;32.50;97.30;;;;;;5063412;28;20082;-63
2022/06/03 06:40:59;;;;;;;10.20;4.90;;;32.60;97.20;;;;;;5061651;28;20033;-62
2022/06/03 06:43:44;;;;;;;11.25;4.40;;;32.70;96.60;;;;;;5062627;28;20021;-62
2022/06/03 06:46:36;;;;;;;6.90;3.88;;;32.70;95.50;;;;;;5064055;28;20040;-62
2022/06/03 06:49:24;;;;;;;11.68;4.22;;;32.60;96.20;;;;;;5063881;28;20048;-63
2022/06/03 06:52:03;;;;;;;7.47;5.00;;;32.80;95.50;;;;;;5065615;28;20035;-62
2022/06/03 06:55:00;;;;;;;11.05;4.10;;;32.90;94.80;;;;;;5063677;28;20021;-63
2022/06/03 06:57:33;;;;;;;9.95;4.63;;;33.00;95.20;;;;;;5063043;28;20029;-63
2022/06/03 07:00:24;;;;;;;13.43;4.57;;;32.90;95.80;;;;;;5062334;28;20017;-61
2022/06/03 07:03:15;;;;;;;8.23;4.47;;;32.70;94.90;;;;;;5063599;28;20017;-60
2022/06/03 07:05:50;;;;;;;28.40;6.05;;;32.50;95.20;;;;;;5063057;28;20037;-60
2022/06/03 07:08:26;;;;;;;12.75;5.10;;;32.50;94.70;;;;;;5066767;28;20032;-61
2022/06/03 07:10:56;;;;;;;26.55;5.95;;;32.50;95.00;;;;;;5067626;28;20036;-62
2022/06/03 07:13:37;;;;;;;8.10;4.90;;;32.60;94.90;;;;;;5067591;28;20415;-62
2022/06/03 07:16:07;;;;;;;9.40;4.45;;;32.70;94.80;;;;;;5062315;28;20043;-62
2022/06/03 07:22:01;;;;;;;15.55;4.57;;;32.90;94.90;;;;;;5066130;28;20034;-62
2022/06/03 07:24:35;;;;;;;9.32;4.72;;;33.00;94.50;;;;;;5051369;28;20021;-61
2022/06/03 07:27:20;;;;;;;12.48;4.55;;;33.00;93.50;;;;;;5063428;28;20077;-62
2022/06/03 07:29:55;;;;;;;10.93;4.82;;;32.90;93.30;;;;;;5060507;28;20130;-62
2022/06/03 07:32:35;;;;;;;9.38;4.40;;;32.80;93.20;;;;;;5066666;28;20184;-61
2022/06/03 07:35:13;;;;;;;10.30;5.18;;;32.70;93.40;;;;;;5066907;28;20050;-62
2022/06/03 07:38:29;;;;;;;7.35;4.20;;;32.70;93.00;;;;;;5064167;28;20017;-62
2022/06/03 07:41:05;;;;;;;10.18;4.82;;;32.80;93.20;;;;;;5059130;28;21247;-62
2022/06/03 07:43:59;;;;;;;10.55;5.72;;;32.80;92.90;;;;;;5067838;28;20549;-62
2022/06/03 07:46:41;;;;;;;7.78;4.72;;;32.70;93.10;;;;;;5067886;28;20366;-63
2022/06/03 07:49:08;;;;;;;21.87;14.33;;;32.80;92.30;;;;;;5069234;28;20047;-62
2022/06/03 07:51:43;;;;;;;10.05;5.63;;;32.70;92.80;;;;;;5071830;28;20025;-62
2022/06/03 07:54:14;;;;;;;15.88;10.32;;;32.70;93.20;;;;;;5066596;28;20025;-62
2022/06/03 07:56:41;;;;;;;10.07;6.63;;;32.70;93.70;;;;;;5073891;28;20046;-61
2022/06/03 07:59:13;;;;;;;11.63;5.28;;;32.70;94.00;;;;;;5072569;28;20267;-63
2022/06/03 08:01:43;;;;;;;11.55;6.93;;;32.70;93.60;;;;;;5070798;28;20017;-61
2022/06/03 08:04:30;;;;;;;19.88;8.90;;;32.60;93.40;;;;;;5068079;28;20611;-63
2022/06/03 08:12:34;;;;;;;33.47;12.48;;;32.50;93.20;;;;;;5065432;28;20136;-62
2022/06/03 08:15:23;;;;;;;9.02;5.75;;;32.40;93.40;;;;;;5059670;28;20052;-62
2022/06/03 08:17:51;;;;;;;8.45;5.00;;;32.30;93.10;;;;;;5065714;28;20084;-62
2022/06/03 08:20:22;;;;;;;15.85;7.25;;;32.30;93.40;;;;;;5059265;28;20017;-62
2022/06/03 08:22:49;;;;;;;11.25;6.80;;;32.30;93.50;;;;;;5058567;28;20048;-62
2022/06/03 08:25:20;;;;;;;9.85;6.63;;;32.30;93.30;;;;;;5070539;28;20504;-63
2022/06/03 08:27:49;;;;;;;15.63;6.95;;;32.40;93.50;;;;;;5075463;28;20078;-62
2022/06/03 08:30:23;;;;;;;19.50;7.43;;;32.30;93.20;;;;;;5076333;28;20032;-62
2022/06/03 08:33:09;;;;;;;12.23;5.93;;;32.40;93.40;;;;;;5069917;28;20040;-62
2022/06/03 08:35:41;;;;;;;14.23;5.85;;;32.30;93.40;;;;;;5071767;28;20436;-61
2022/06/03 08:38:54;;;;;;;14.30;6.22;;;32.40;93.40;;;;;;5076314;28;20009;-62
2022/06/03 08:41:39;;;;;;;12.63;6.50;;;32.40;94.00;;;;;;5063088;28;20545;-63
2022/06/03 08:44:08;;;;;;;12.48;6.05;;;32.40;93.50;;;;;;5068462;28;20103;-62
2022/06/03 08:46:43;;;;;;;8.23;5.88;;;32.30;92.90;;;;;;5068546;28;20040;-62
2022/06/03 08:49:17;;;;;;;14.27;5.93;;;32.20;93.10;;;;;;5068219;28;20037;-63
2022/06/03 08:51:51;;;;;;;16.25;5.80;;;32.20;93.60;;;;;;5074967;28;20089;-62
2022/06/03 08:54:49;;;;;;;11.95;7.05;;;32.20;93.30;;;;;;5074956;28;20114;-62
2022/06/03 08:57:45;;;;;;;14.90;6.45;;;32.20;93.60;;;;;;5064435;28;20458;-62
2022/06/03 09:00:19;;;;;;;16.98;7.32;;;32.20;93.80;;;;;;5058689;28;20021;-61
2022/06/03 09:02:48;;;;;;;20.98;7.80;;;32.20;93.90;;;;;;5061074;28;20051;-63
2022/06/03 09:05:28;;;;;;;18.92;7.07;;;32.20;93.70;;;;;;5061478;28;20066;-61
2022/06/03 09:08:02;;;;;;;10.63;6.30;;;32.20;93.40;;;;;;5066001;28;20050;-62
2022/06/03 09:10:35;;;;;;;11.73;6.53;;;32.10;93.40;;;;;;5061790;28;20111;-62
2022/06/03 09:13:19;;;;;;;10.07;7.47;;;32.00;93.60;;;;;;5075058;28;20485;-61
2022/06/03 09:15:48;;;;;;;24.65;13.27;;;32.10;93.90;;;;;;5074506;28;20060;-61
2022/06/03 09:18:27;;;;;;;33.38;18.40;;;32.10;94.20;;;;;;5071321;28;20560;-62
2022/06/03 09:21:03;;;;;;;52.78;30.42;;;32.00;94.20;;;;;;5067172;28;20029;-61
2022/06/03 09:23:38;;;;;;;64.47;34.85;;;32.00;94.00;;;;;;5060265;28;20048;-63
2022/06/03 09:26:05;;;;;;;39.17;21.67;;;31.90;94.40;;;;;;5057662;28;20082;-62
2022/06/03 09:28:34;;;;;;;34.90;21.38;;;31.90;94.40;;;;;;5068101;28;20112;-61
2022/06/03 09:31:07;;;;;;;35.78;21.88;;;31.90;94.00;;;;;;5058758;28;20021;-64
2022/06/03 09:33:36;;;;;;;87.15;44.88;;;31.80;94.10;;;;;;5057851;28;20068;-63
2022/06/03 09:36:12;;;;;;;117.43;70.65;;;31.70;94.00;;;;;;5062324;28;20036;-64
2022/06/03 09:38:46;;;;;;;82.55;48.45;;;31.70;94.10;;;;;;5069768;28;20029;-62
2022/06/03 09:41:13;;;;;;;46.35;28.90;;;31.60;94.20;;;;;;5063565;28;20196;-61
2022/06/03 09:43:45;;;;;;;53.00;30.58;;;31.60;94.10;;;;;;5064928;28;20017;-62
2022/06/03 09:46:14;;;;;;;38.83;22.83;;;31.60;94.20;;;;;;5063041;28;20025;-60
2022/06/03 09:48:42;;;;;;;41.55;24.52;;;31.60;94.20;;;;;;5055223;28;20502;-61
2022/06/03 09:51:20;;;;;;;46.33;26.00;;;31.70;94.40;;;;;;5062134;28;20389;-61
2022/06/03 09:53:49;;;;;;;29.70;16.92;;;31.70;94.50;;;;;;5062291;28;20033;-61
2022/06/03 09:56:30;;;;;;;24.15;14.63;;;31.70;94.50;;;;;;5058537;28;20388;-61
2022/06/03 09:59:02;;;;;;;31.30;17.17;;;31.70;94.70;;;;;;5061688;28;20028;-62
2022/06/03 10:01:30;;;;;;;27.52;15.98;;;31.70;94.20;;;;;;5063527;28;20021;-60
2022/06/03 10:04:04;;;;;;;35.40;19.42;;;31.60;94.20;;;;;;5054923;28;20059;-61
2022/06/03 10:06:43;;;;;;;32.70;20.10;;;31.60;94.20;;;;;;5065649;28;20021;-62
2022/06/03 10:17:46;;;;;;;21.58;11.75;;;31.60;94.90;;;;;;5068996;28;20055;-61
2022/06/03 10:20:13;;;;;;;19.60;11.25;;;31.60;95.00;;;;;;5072978;28;20417;-60
2022/06/03 10:22:41;;;;;;;21.17;12.00;;;31.50;94.80;;;;;;5068336;28;20020;-61
2022/06/03 10:25:10;;;;;;;23.33;14.27;;;31.50;95.00;;;;;;5057265;28;20422;-60
2022/06/03 10:27:36;;;;;;;21.42;13.32;;;31.40;95.00;;;;;;5067934;28;20057;-59
2022/06/03 10:30:05;;;;;;;24.90;13.43;;;31.40;95.00;;;;;;5070875;28;20159;-61
2022/06/03 10:32:33;;;;;;;17.33;10.60;;;31.30;95.10;;;;;;5056962;28;20029;-62
2022/06/03 10:35:16;;;;;;;20.00;10.82;;;31.30;95.20;;;;;;5057739;28;20112;-62
2022/06/03 10:37:58;;;;;;;38.70;22.05;;;31.20;95.20;;;;;;5061941;28;20398;-61
2022/06/03 10:40:27;;;;;;;57.28;36.60;;;31.20;95.30;;;;;;5069546;28;20020;-58
2022/06/03 10:42:58;;;;;;;31.00;19.63;;;31.20;95.50;;;;;;5065606;28;20035;-60
2022/06/03 10:45:36;;;;;;;30.80;12.80;;;31.20;96.00;;;;;;5064679;28;20029;-60
2022/06/03 10:48:29;;;;;;;28.95;14.43;;;31.20;95.60;;;;;;5073249;28;20040;-61
2022/06/03 10:51:18;;;;;;;30.42;16.13;;;31.10;95.80;;;;;;5064409;28;20033;-61
2022/06/03 11:02:36;;;;;;;45.45;26.98;;;31.10;96.30;;;;;;5067866;28;20342;-61
2022/06/03 11:05:11;;;;;;;51.00;28.42;;;31.10;96.10;;;;;;5073083;28;20594;-62
2022/06/03 11:07:38;;;;;;;40.67;24.25;;;31.10;96.20;;;;;;5072953;28;20029;-62
2022/06/03 11:10:09;;;;;;;41.63;22.83;;;31.10;96.30;;;;;;5072813;28;20020;-62
2022/06/03 11:12:36;;;;;;;39.15;21.23;;;31.20;96.50;;;;;;5065410;28;20531;-60
2022/06/03 11:15:31;;;;;;;28.80;15.20;;;31.20;96.40;;;;;;5069724;28;20074;-62
2022/06/03 11:18:00;;;;;;;24.55;15.05;;;31.10;96.30;;;;;;5074271;28;20028;-61
2022/06/03 11:20:36;;;;;;;24.08;13.95;;;31.10;96.40;;;;;;5077083;28;20051;-62
2022/06/03 11:23:07;;;;;;;24.95;12.82;;;31.00;96.20;;;;;;5069712;28;20540;-59
2022/06/03 11:25:39;;;;;;;24.77;14.02;;;31.00;96.30;;;;;;5069824;28;20135;-62
2022/06/03 11:28:09;;;;;;;19.52;12.00;;;31.00;96.30;;;;;;5069291;28;20100;-62
2022/06/03 11:31:14;;;;;;;22.05;13.88;;;31.00;96.50;;;;;;5077085;28;20584;-62
2022/06/03 11:34:01;;;;;;;27.63;16.02;;;31.00;96.30;;;;;;5066363;28;20047;-62
2022/06/03 11:36:50;;;;;;;52.33;25.10;;;31.00;96.80;;;;;;5075858;28;20470;-59
2022/06/03 11:39:31;;;;;;;35.83;20.35;;;31.00;96.50;;;;;;5075724;28;20028;-62
2022/06/03 11:42:03;;;;;;;67.33;36.27;;;31.00;97.10;;;;;;5073149;28;20433;-65
2022/06/03 11:44:56;;;;;;;90.13;43.40;;;31.00;97.20;;;;;;5072134;28;20299;-63
2022/06/03 11:47:31;;;;;;;86.72;43.08;;;31.00;97.50;;;;;;5072960;28;20382;-63
2022/06/03 11:49:58;;;;;;;96.63;48.88;;;31.00;98.20;;;;;;5075805;28;20055;-63
2022/06/03 11:52:25;;;;;;;89.25;48.45;;;31.00;98.10;;;;;;5076528;28;20050;-63
2022/06/03 11:54:52;;;;;;;107.88;60.20;;;30.90;98.30;;;;;;5076786;28;20024;-63
2022/06/03 11:57:19;;;;;;;122.93;64.25;;;30.80;98.60;;;;;;5076116;28;20533;-62
2022/06/03 11:59:59;;;;;;;135.90;75.65;;;30.90;99.10;;;;;;5074786;28;20107;-62
2022/06/03 12:02:44;;;;;;;139.27;80.28;;;30.80;99.20;;;;;;5071522;28;20013;-63
2022/06/03 12:05:25;;;;;;;137.32;79.32;;;30.80;99.30;;;;;;5073720;28;20012;-62
2022/06/03 12:08:03;;;;;;;123.90;69.75;;;30.70;99.30;;;;;;5076342;28;20423;-62
2022/06/03 12:10:45;;;;;;;123.75;70.68;;;30.80;99.40;;;;;;5074905;28;20017;-64
2022/06/03 12:13:26;;;;;;;113.63;64.45;;;30.70;99.40;;;;;;5069336;28;20029;-63
2022/06/03 12:15:59;;;;;;;99.93;54.55;;;30.70;99.90;;;;;;5075197;28;20071;-63
2022/06/03 12:18:35;;;;;;;75.50;47.42;;;30.70;99.40;;;;;;5075412;28;20033;-64
2022/06/03 12:21:06;;;;;;;75.95;43.80;;;30.60;99.20;;;;;;5074098;28;20493;-63
2022/06/03 12:23:38;;;;;;;72.32;41.63;;;30.50;99.50;;;;;;5068828;28;20033;-63
2022/06/03 12:26:05;;;;;;;68.45;39.33;;;30.60;99.50;;;;;;5056654;28;20048;-63
2022/06/03 12:28:37;;;;;;;77.43;42.42;;;30.60;99.80;;;;;;5056871;28;20033;-63
2022/06/03 12:31:14;;;;;;;72.60;44.08;;;30.50;99.40;;;;;;5058683;28;20017;-63
2022/06/03 12:33:55;;;;;;;98.30;54.40;;;30.60;99.50;;;;;;5071764;28;20028;-64
2022/06/03 12:36:51;;;;;;;122.50;59.88;;;30.50;99.10;;;;;;5076320;28;20492;-63
2022/06/03 12:39:28;;;;;;;148.48;68.40;;;30.50;99.30;;;;;;5072805;28;20044;-63
2022/06/03 12:41:57;;;;;;;102.93;51.47;;;30.40;99.40;;;;;;5070112;28;20035;-63
2022/06/03 12:44:39;;;;;;;75.75;39.13;;;30.40;99.20;;;;;;5071029;28;20081;-63
2022/06/03 12:47:34;;;;;;;74.97;34.90;;;30.50;99.30;;;;;;5074956;28;20127;-62
2022/06/03 12:50:31;;;;;;;73.65;40.63;;;30.50;99.20;;;;;;5054895;28;20032;-62
2022/06/03 12:53:37;;;;;;;79.75;45.45;;;30.40;99.40;;;;;;5072841;28;20024;-62
2022/06/03 12:56:09;;;;;;;84.07;47.65;;;30.30;99.70;;;;;;5030091;28;20037;-62
2022/06/03 12:58:44;;;;;;;70.40;42.88;;;30.20;99.90;;;;;;5073918;28;20107;-61
2022/06/03 13:01:11;;;;;;;73.60;39.92;;;30.20;99.90;;;;;;5074587;28;20099;-62
2022/06/03 13:03:41;;;;;;;60.85;33.90;;;30.30;99.90;;;;;;5075550;28;20029;-63
2022/06/03 13:06:08;;;;;;;57.10;32.55;;;30.30;99.90;;;;;;5074656;28;20033;-61
2022/06/03 13:09:34;;;;;;;48.10;28.40;;;30.30;99.90;;;;;;5062750;28;20032;-62
2022/06/03 13:11:23;;;;;;;43.88;27.67;;;30.20;99.90;;;;;;5061085;28;20111;-62
2022/06/03 13:13:59;;;;;;;42.53;26.02;;;30.10;99.90;;;;;;5075881;28;20025;-64
2022/06/03 13:16:31;;;;;;;49.67;24.90;;;30.10;99.90;;;;;;5074179;28;20047;-63
2022/06/03 13:19:22;;;;;;;44.17;26.77;;;30.10;99.90;;;;;;5062411;28;20066;-63
2022/06/03 13:21:57;;;;;;;44.22;27.70;;;30.10;99.90;;;;;;5059300;28;20028;-62
2022/06/03 13:24:29;;;;;;;55.38;28.90;;;30.00;99.90;;;;;;5064077;28;20093;-61
2022/06/03 13:27:08;;;;;;;49.45;29.88;;;30.00;99.90;;;;;;5074158;28;20054;-63
2022/06/03 13:29:54;;;;;;;50.17;29.48;;;30.00;99.90;;;;;;5074843;28;20056;-63
2022/06/03 13:32:38;;;;;;;50.15;29.02;;;30.00;99.90;;;;;;5074992;28;20044;-63
2022/06/03 13:35:27;;;;;;;51.15;29.55;;;30.00;99.90;;;;;;5072796;28;20024;-61
2022/06/03 13:37:57;;;;;;;41.10;27.63;;;29.90;99.90;;;;;;5074037;28;20074;-62
2022/06/03 13:40:27;;;;;;;47.67;27.80;;;29.90;99.90;;;;;;5072181;28;20019;-63
2022/06/03 13:43:00;;;;;;;43.78;28.17;;;29.80;99.90;;;;;;5074760;28;20047;-62
2022/06/03 13:45:58;;;;;;;45.67;26.70;;;29.80;99.90;;;;;;5073789;28;20027;-62
2022/06/03 13:48:48;;;;;;;50.45;27.88;;;29.80;99.90;;;;;;5053770;28;20505;-63
2022/06/03 13:51:47;;;;;;;44.83;26.65;;;29.80;99.90;;;;;;5060676;28;20097;-63
2022/06/03 13:54:46;;;;;;;52.47;26.90;;;29.80;99.90;;;;;;5072577;28;20028;-63
2022/06/03 13:57:28;;;;;;;41.45;22.65;;;29.70;99.90;;;;;;5068948;28;20032;-63
2022/06/03 14:00:27;;;;;;;48.38;22.45;;;29.70;99.90;;;;;;5061657;28;20087;-62
2022/06/03 14:03:28;;;;;;;40.22;22.02;;;29.60;99.90;;;;;;5056277;28;20295;-62
2022/06/03 14:06:08;;;;;;;37.70;19.50;;;29.60;99.90;;;;;;5061903;28;20541;-63
2022/06/03 14:08:59;;;;;;;33.28;20.30;;;29.60;99.90;;;;;;5065383;28;20025;-62
2022/06/03 14:11:36;;;;;;;33.08;18.67;;;29.50;99.90;;;;;;5062918;28;20056;-62
2022/06/03 14:14:09;;;;;;;38.47;17.02;;;29.60;99.90;;;;;;5065625;28;20044;-62
2022/06/03 14:16:44;;;;;;;37.25;14.93;;;29.50;99.90;;;;;;5065696;28;20024;-63
2022/06/03 14:19:20;;;;;;;33.28;15.50;;;29.50;99.90;;;;;;5069681;28;20485;-64
2022/06/03 14:21:51;;;;;;;33.45;15.77;;;29.50;99.90;;;;;;5066073;28;20226;-63